Aviation Digital Data Service (ADDS)

Output produced by METARs form (1424 UTC 10 July 2020)
found at http://www.aviationweather.gov/metar/data/
 
KANB 101353Z AUTO 25006KT 10SM SCT008 BKN015 27/24 A2998 RMK AO2 SLP143 T02670239
KANB 101140Z 1012/1112 VRB03KT P6SM OVC009 
     TEMPO 1014/1015 BKN025 
     FM101500 27010KT P6SM SCT040 
     FM110000 31006KT P6SM SKC